KRSL

Russell Municipal Airport

Russell, Kansas, USA
METAR KRSL 252153Z AUTO 18010G16KT 10SM CLR 32/19 A2984 RMK AO2 SLP088 T03170189
Observed Flight Rules
May-25 @ 21:53 UTC (49 minutes ago) Visual Flight Rules
Wind Visibility Clouds
180° at 10 knots
 Gusting to 16 knots
10 miles
  • Clear skies
Temperatures Readings
Current 32°C / 90°F
Dewpoint 19°C / 66°F
Humidity 46%
Altimeter 29.84" Hg
Pressure 1008.8 hPa
Elevation 567
METAR KRSL 252153Z AUTO 18010G16KT 10SM CLR 32/19 A2984 RMK AO2 SLP088 T03170189
Observed Flight Rules
May-25 @ 21:53 UTC
(49 minutes ago)
VFR
Wind Visibility
180° at 10 knots
 Gusting to 16 knots
10 miles
Clouds
  • Clear skies
Temperature Dewpoint
32°C / 90°F 19°C / 66°F
Humidity Altimeter Pressure
46% 29.84" Hg 1008.8 hPa